MSC Flavia — 3FBD7 — position and weather

sailwx.info

Track history (hours):
 
Tides and Currents Weather Stations Pressure Air Temp Water Temp Dewpoint Dewpoint Depression Visibility Wind Speed Wind Dir Waves Ship Positions

MSC Flavia

Last reported at 2016-Mar-03 06:29 UTC. Time now 2016-May-24 11:51 UTC.
Position N 30°14' E 122°15'.
Warning: this ship's position is months out of date.

Length 366 m; draft 6.5 m.

Type: Ship (hazmat cat A). MMSI: 373004000.

Date/timePositionNaut miles runAvg speedWind from/ knotsBaromVisibWave heightAir tempDewpointWater temp
2016-Mar-03 06:29N 30°14' E 122°15'  
2016-Feb-27 15:11N 30°09' E 122°17'0 0.0
2016-Feb-26 14:23N 30°09' E 122°17'0 0.2
2016-Feb-26 13:05N 30°08' E 122°17'4 6.8
2016-Feb-26 12:33N 30°08' E 122°21'1313.2
2016-Feb-26 11:33N 30°08' E 122°37'1413.0
2016-Feb-26 10:30N 30°02' E 122°51'1414.1
2016-Feb-26 09:32N 29°52' E 123°02'36712.6
2016-Feb-25 04:31N 24°41' E 119°24'9 9.6
2016-Feb-25 03:32N 24°37' E 119°14'1310.8
2016-Feb-25 02:21N 24°31' E 119°02'910.7
2016-Feb-25 01:33N 24°27' E 118°54'1211.5
2016-Feb-25 00:32N 24°21' E 118°43'1111.6
2016-Feb-24 23:33N 24°16' E 118°32'1312.9
2016-Feb-24 22:33N 24°15' E 118°17'1312.8
2016-Feb-24 21:33N 24°23' E 118°07'6 6.5
2016-Feb-24 20:33N 24°27' E 118°01'0 0.0
2016-Feb-24 19:33N 24°27' E 118°01'0 0.0
2016-Feb-24 18:33N 24°27' E 118°01'0 0.0
2016-Feb-24 17:33N 24°27' E 118°01'0 0.0
2016-Feb-24 16:33N 24°27' E 118°01'0 0.0
2016-Feb-24 15:30N 24°27' E 118°01'0 0.0
2016-Feb-24 14:33N 24°27' E 118°01'0 0.0
2016-Feb-24 13:33N 24°27' E 118°01'0 0.0
2016-Feb-24 12:33N 24°27' E 118°01'0 0.0
2016-Feb-24 11:33N 24°27' E 118°01'0 0.0
2016-Feb-24 10:33N 24°27' E 118°01'0 0.0
2016-Feb-24 09:33N 24°27' E 118°01'0 0.1
2016-Feb-24 08:04N 24°27' E 118°01'3 6.5
2016-Feb-24 07:33N 24°25' E 118°04'1211.6
2016-Feb-24 06:33N 24°17' E 118°13'6 5.6
2016-Feb-24 05:32N 24°13' E 118°18'0 0.3
2016-Feb-24 04:34N 24°13' E 118°18'1 1.0
2016-Feb-24 03:11N 24°14' E 118°19'0 0.0
2016-Feb-24 00:11N 24°14' E 118°19'0 0.0
2016-Feb-23 23:17N 24°14' E 118°19'0 0.0
2016-Feb-23 22:29N 24°14' E 118°19'0 0.0
2016-Feb-23 21:29N 24°14' E 118°19'0 0.0
2016-Feb-23 20:32N 24°14' E 118°19'0 0.0
2016-Feb-23 19:17N 24°14' E 118°19'0 0.0
2016-Feb-23 18:17N 24°14' E 118°19'0 0.0
2016-Feb-23 15:08N 24°14' E 118°19'0 0.0
2016-Feb-23 10:14N 24°14' E 118°19'0 0.0
2016-Feb-23 07:23N 24°14' E 118°19'0 0.0
2016-Feb-23 06:23N 24°14' E 118°19'1 0.6
2016-Feb-23 05:32N 24°14' E 118°20'0 0.1
2016-Feb-23 04:29N 24°14' E 118°20'0 0.0
2016-Feb-23 02:29N 24°15' E 118°20'0 0.0
2016-Feb-23 01:32N 24°14' E 118°20'0 0.0
2016-Feb-23 00:29N 24°14' E 118°20'0 0.0
2016-Feb-22 23:29N 24°15' E 118°20'0 0.0
2016-Feb-22 22:23N 24°14' E 118°20'0 0.0
2016-Feb-22 21:17N 24°14' E 118°20'0 0.0
2016-Feb-22 20:11N 24°14' E 118°20'0 0.1
2016-Feb-22 19:29N 24°14' E 118°20'0 0.1
2016-Feb-22 18:29N 24°14' E 118°20'0 0.0
2016-Feb-22 17:29N 24°14' E 118°20'0 0.0
2016-Feb-22 16:29N 24°15' E 118°20'0 0.0
2016-Feb-22 15:23N 24°15' E 118°20'0 0.1
2016-Feb-22 12:29N 24°15' E 118°20'0 0.0
2016-Feb-22 11:32N 24°15' E 118°20'0 0.2
2016-Feb-22 10:32N 24°15' E 118°20'0 0.1
2016-Feb-22 09:32N 24°15' E 118°20'0 0.0
2016-Feb-22 08:32N 24°15' E 118°20'0 0.0
2016-Feb-22 07:23N 24°15' E 118°20'0 0.0
2016-Feb-22 06:29N 24°14' E 118°20'  
Track history (hours):
 
Tides and Currents Weather Stations Pressure Air Temp Water Temp Dewpoint Dewpoint Depression Visibility Wind Speed Wind Dir Waves Ship Positions

MSC Flavia

Last reported at 2016-Mar-03 06:29 UTC. Time now 2016-May-24 11:51 UTC.
Position N 30°14' E 122°15'.
Warning: this ship's position is months out of date.

Length 366 m; draft 6.5 m.

Type: Ship (hazmat cat A). MMSI: 373004000.

Date/timePositionNaut miles runAvg speedWind from/ knotsBaromVisibWave heightAir tempDewpointWater temp
2016-Mar-03 06:29N 30°14' E 122°15'  
2016-Feb-27 15:11N 30°09' E 122°17'0 0.0
2016-Feb-26 14:23N 30°09' E 122°17'0 0.2
2016-Feb-26 13:05N 30°08' E 122°17'4 6.8
2016-Feb-26 12:33N 30°08' E 122°21'1313.2
2016-Feb-26 11:33N 30°08' E 122°37'1413.0
2016-Feb-26 10:30N 30°02' E 122°51'1414.1
2016-Feb-26 09:32N 29°52' E 123°02'36712.6
2016-Feb-25 04:31N 24°41' E 119°24'9 9.6
2016-Feb-25 03:32N 24°37' E 119°14'1310.8
2016-Feb-25 02:21N 24°31' E 119°02'910.7
2016-Feb-25 01:33N 24°27' E 118°54'1211.5
2016-Feb-25 00:32N 24°21' E 118°43'1111.6
2016-Feb-24 23:33N 24°16' E 118°32'1312.9
2016-Feb-24 22:33N 24°15' E 118°17'1312.8
2016-Feb-24 21:33N 24°23' E 118°07'6 6.5
2016-Feb-24 20:33N 24°27' E 118°01'0 0.0
2016-Feb-24 19:33N 24°27' E 118°01'0 0.0
2016-Feb-24 18:33N 24°27' E 118°01'0 0.0
2016-Feb-24 17:33N 24°27' E 118°01'0 0.0
2016-Feb-24 16:33N 24°27' E 118°01'0 0.0
2016-Feb-24 15:30N 24°27' E 118°01'0 0.0
2016-Feb-24 14:33N 24°27' E 118°01'0 0.0
2016-Feb-24 13:33N 24°27' E 118°01'0 0.0
2016-Feb-24 12:33N 24°27' E 118°01'0 0.0
2016-Feb-24 11:33N 24°27' E 118°01'0 0.0
2016-Feb-24 10:33N 24°27' E 118°01'0 0.0
2016-Feb-24 09:33N 24°27' E 118°01'0 0.1
2016-Feb-24 08:04N 24°27' E 118°01'3 6.5
2016-Feb-24 07:33N 24°25' E 118°04'1211.6
2016-Feb-24 06:33N 24°17' E 118°13'6 5.6
2016-Feb-24 05:32N 24°13' E 118°18'0 0.3
2016-Feb-24 04:34N 24°13' E 118°18'1 1.0
2016-Feb-24 03:11N 24°14' E 118°19'0 0.0
2016-Feb-24 00:11N 24°14' E 118°19'0 0.0
2016-Feb-23 23:17N 24°14' E 118°19'0 0.0
2016-Feb-23 22:29N 24°14' E 118°19'0 0.0
2016-Feb-23 21:29N 24°14' E 118°19'0 0.0
2016-Feb-23 20:32N 24°14' E 118°19'0 0.0
2016-Feb-23 19:17N 24°14' E 118°19'0 0.0
2016-Feb-23 18:17N 24°14' E 118°19'0 0.0
2016-Feb-23 15:08N 24°14' E 118°19'0 0.0
2016-Feb-23 10:14N 24°14' E 118°19'0 0.0
2016-Feb-23 07:23N 24°14' E 118°19'0 0.0
2016-Feb-23 06:23N 24°14' E 118°19'1 0.6
2016-Feb-23 05:32N 24°14' E 118°20'0 0.1
2016-Feb-23 04:29N 24°14' E 118°20'0 0.0
2016-Feb-23 02:29N 24°15' E 118°20'0 0.0
2016-Feb-23 01:32N 24°14' E 118°20'0 0.0
2016-Feb-23 00:29N 24°14' E 118°20'0 0.0
2016-Feb-22 23:29N 24°15' E 118°20'0 0.0
2016-Feb-22 22:23N 24°14' E 118°20'0 0.0
2016-Feb-22 21:17N 24°14' E 118°20'0 0.0
2016-Feb-22 20:11N 24°14' E 118°20'0 0.1
2016-Feb-22 19:29N 24°14' E 118°20'0 0.1
2016-Feb-22 18:29N 24°14' E 118°20'0 0.0
2016-Feb-22 17:29N 24°14' E 118°20'0 0.0
2016-Feb-22 16:29N 24°15' E 118°20'0 0.0
2016-Feb-22 15:23N 24°15' E 118°20'0 0.1
2016-Feb-22 12:29N 24°15' E 118°20'0 0.0
2016-Feb-22 11:32N 24°15' E 118°20'0 0.2
2016-Feb-22 10:32N 24°15' E 118°20'0 0.1
2016-Feb-22 09:32N 24°15' E 118°20'0 0.0
2016-Feb-22 08:32N 24°15' E 118°20'0 0.0
2016-Feb-22 07:23N 24°15' E 118°20'0 0.0
2016-Feb-22 06:29N 24°14' E 118°20'  

Dump ship's entire track history